Time;durP1;ratioP1;P1;durP2;ratioP2;P2;SDS_P1;SDS_P2;PMS_P1;PMS_P2;Temp;Humidity;BMP_temperature;BMP_pressure;BME280_temperature;BME280_humidity;BME280_pressure;Samples;Min_cycle;Max_cycle;Signal;HPM_P1;HPM_P2
2023/12/11 00:01:45;;;;;;;8.95;8.15;;;;;;;4.75;71.10;94893.31;5056176;28;20213;-70
2023/12/11 00:04:12;;;;;;;8.80;8.00;;;;;;;4.70;71.05;94885.28;5056141;28;20614;-70
2023/12/11 00:06:39;;;;;;;8.70;7.90;;;;;;;4.69;71.50;94883.69;5056740;28;20668;-70
2023/12/11 00:09:07;;;;;;;8.55;7.85;;;;;;;4.71;71.51;94886.88;5056132;28;20276;-70
2023/12/11 00:11:34;;;;;;;7.80;7.15;;;;;;;4.68;71.83;94889.44;5057525;28;20209;-70
2023/12/11 00:14:01;;;;;;;7.85;7.18;;;;;;;4.69;71.63;94896.53;5057774;28;20206;-70
2023/12/11 00:16:28;;;;;;;7.63;6.93;;;;;;;4.69;72.16;94891.06;5079774;28;20208;-70
2023/12/11 00:18:56;;;;;;;6.72;6.22;;;;;;;4.70;71.99;94900.88;5079651;28;20192;-70
2023/12/11 00:21:25;;;;;;;7.10;6.40;;;;;;;4.71;72.03;94900.53;5079361;28;20226;-70
2023/12/11 00:23:54;;;;;;;7.22;6.65;;;;;;;4.72;71.97;94899.44;5079491;28;20295;-70
2023/12/11 00:26:22;;;;;;;7.03;6.43;;;;;;;4.72;72.27;94895.88;5079261;28;20192;-70
2023/12/11 00:28:50;;;;;;;7.00;6.40;;;;;;;4.70;72.07;94906.34;5079267;28;20240;-70
2023/12/11 00:31:17;;;;;;;6.93;6.32;;;;;;;4.69;72.19;94905.53;5079258;28;20204;-70
2023/12/11 00:33:44;;;;;;;7.55;6.95;;;;;;;4.69;72.53;94899.28;5079767;28;20261;-70
2023/12/11 00:36:13;;;;;;;7.25;6.55;;;;;;;4.67;72.25;94912.44;5079474;28;20208;-71
2023/12/11 00:38:40;;;;;;;7.03;6.38;;;;;;;4.68;72.46;94905.84;5079397;28;20203;-71
2023/12/11 00:41:08;;;;;;;7.35;6.65;;;;;;;4.62;72.56;94899.75;5079006;28;20204;-71
2023/12/11 00:43:35;;;;;;;7.78;7.07;;;;;;;4.61;72.94;94910.97;5078677;28;20295;-71
2023/12/11 00:46:02;;;;;;;7.68;6.93;;;;;;;4.58;73.01;94913.22;5078821;28;20583;-71
2023/12/11 00:48:29;;;;;;;8.05;7.35;;;;;;;4.55;73.01;94915.78;5078942;28;20220;-71
2023/12/11 00:50:56;;;;;;;8.38;7.57;;;;;;;4.52;73.11;94919.16;5078604;28;20200;-70
2023/12/11 00:53:24;;;;;;;7.55;6.95;;;;;;;4.50;73.38;94913.19;5078492;28;20192;-70
2023/12/11 00:55:51;;;;;;;8.55;7.75;;;;;;;4.51;73.42;94926.56;5079482;28;20189;-70
2023/12/11 00:58:19;;;;;;;7.97;7.10;;;;;;;4.50;73.10;94921.38;5078477;28;20196;-70
2023/12/11 01:00:46;;;;;;;7.60;6.90;;;;;;;4.52;73.50;94903.56;5078605;28;20279;-70
2023/12/11 01:03:12;;;;;;;7.90;7.03;;;;;;;4.48;73.03;94905.34;5078421;28;20614;-70
2023/12/11 01:05:39;;;;;;;8.05;7.28;;;;;;;4.49;73.29;94898.75;5078857;28;20564;-70
2023/12/11 01:08:07;;;;;;;7.72;7.10;;;;;;;4.52;73.09;94905.50;5078926;28;20230;-70
2023/12/11 01:10:36;;;;;;;6.95;6.35;;;;;;;4.55;72.57;94904.88;5078240;28;20212;-70
2023/12/11 01:13:03;;;;;;;6.55;5.93;;;;;;;4.57;72.26;94906.16;5078678;28;20565;-70
2023/12/11 01:15:30;;;;;;;5.93;5.43;;;;;;;4.64;72.00;94905.66;5074694;28;20236;-70
2023/12/11 01:17:57;;;;;;;4.85;4.53;;;;;;;4.71;71.47;94903.28;5075162;28;20674;-70
2023/12/11 01:20:25;;;;;;;4.60;4.20;;;;;;;4.76;70.91;94905.88;5074875;28;20678;-70
2023/12/11 01:22:52;;;;;;;4.82;4.43;;;;;;;4.82;70.68;94899.09;5075097;28;20224;-70
2023/12/11 01:25:19;;;;;;;4.53;4.20;;;;;;;4.89;70.10;94906.03;5074502;28;20706;-70
2023/12/11 01:27:48;;;;;;;4.30;4.00;;;;;;;4.93;69.93;94909.72;5075237;28;20658;-70
2023/12/11 01:30:17;;;;;;;4.20;3.90;;;;;;;4.96;69.95;94906.34;5075162;28;20644;-70
2023/12/11 01:32:44;;;;;;;4.30;4.00;;;;;;;4.99;69.83;94903.78;5074403;28;20201;-71
2023/12/11 01:35:11;;;;;;;4.68;4.38;;;;;;;5.04;69.12;94906.34;5074557;28;20185;-70
2023/12/11 01:37:38;;;;;;;4.68;4.28;;;;;;;5.05;69.33;94902.50;5075318;28;20213;-70
2023/12/11 01:40:07;;;;;;;3.95;3.65;;;;;;;5.08;68.88;94906.50;5074628;28;20605;-71
2023/12/11 01:42:35;;;;;;;4.03;3.72;;;;;;;5.12;68.79;94901.19;5091656;28;20197;-70
2023/12/11 01:45:03;;;;;;;3.88;3.58;;;;;;;5.11;69.27;94899.59;5075510;28;20199;-70
2023/12/11 01:47:31;;;;;;;3.97;3.67;;;;;;;5.12;68.89;94896.56;5074951;28;20208;-70
2023/12/11 01:49:58;;;;;;;3.97;3.67;;;;;;;5.13;68.82;94900.91;5074866;28;20212;-70
2023/12/11 01:52:26;;;;;;;4.28;3.97;;;;;;;5.11;68.84;94894.94;5074137;28;20204;-71
2023/12/11 01:54:53;;;;;;;4.07;3.78;;;;;;;5.12;68.91;94895.72;5074577;28;20270;-71
2023/12/11 01:57:20;;;;;;;3.97;3.67;;;;;;;5.14;68.77;94886.09;5075173;28;20201;-71
2023/12/11 01:59:47;;;;;;;4.30;4.00;;;;;;;5.15;69.07;94889.63;5074592;28;20270;-71
2023/12/11 02:02:16;;;;;;;3.95;3.65;;;;;;;5.16;68.86;94883.84;5075015;28;20201;-71
2023/12/11 02:04:42;;;;;;;3.50;3.30;;;;;;;5.17;68.38;94887.38;5075358;28;20201;-70
2023/12/11 02:07:09;;;;;;;3.63;3.35;;;;;;;5.20;68.17;94889.47;5074209;28;20197;-70
2023/12/11 02:09:36;;;;;;;3.63;3.33;;;;;;;5.20;68.29;94875.81;5074116;28;20216;-70
2023/12/11 02:12:05;;;;;;;3.30;3.10;;;;;;;5.21;68.00;94880.94;5074958;28;20244;-70
2023/12/11 02:14:32;;;;;;;3.35;3.15;;;;;;;5.20;67.68;94881.28;5065708;28;20233;-71
2023/12/11 02:17:01;;;;;;;3.20;3.00;;;;;;;5.16;67.75;94881.13;5054992;28;20206;-71
2023/12/11 02:19:30;;;;;;;2.53;2.42;;;;;;;5.15;67.80;94881.41;5058871;28;20193;-70
2023/12/11 02:21:57;;;;;;;3.22;3.03;;;;;;;5.14;67.58;94883.34;5058357;28;20190;-71
2023/12/11 02:24:28;;;;;;;2.80;2.60;;;;;;;5.14;67.48;94894.28;5058788;28;20197;-71
2023/12/11 02:26:56;;;;;;;2.85;2.65;;;;;;;5.12;67.69;94895.72;5059055;28;20255;-71
2023/12/11 02:29:24;;;;;;;3.00;2.80;;;;;;;5.09;67.81;94890.94;5057862;28;20265;-70
2023/12/11 02:31:51;;;;;;;3.35;3.10;;;;;;;5.04;67.85;94891.88;5057829;28;20203;-70
2023/12/11 02:34:18;;;;;;;3.90;3.60;;;;;;;4.94;68.15;94890.28;5058666;28;20537;-70
2023/12/11 02:36:45;;;;;;;4.13;3.83;;;;;;;4.87;68.75;94900.09;5057808;28;20190;-70
2023/12/11 02:39:12;;;;;;;3.88;3.58;;;;;;;4.81;69.12;94897.50;5057785;28;20189;-70
2023/12/11 02:41:39;;;;;;;4.20;3.85;;;;;;;4.81;69.13;94899.44;5057773;28;20193;-69
2023/12/11 02:44:07;;;;;;;3.92;3.63;;;;;;;4.81;69.04;94896.69;5058372;28;20194;-70
2023/12/11 02:46:34;;;;;;;3.45;3.25;;;;;;;4.80;68.79;94893.16;5058117;28;20197;-69
2023/12/11 02:49:01;;;;;;;3.20;3.00;;;;;;;4.79;68.83;94899.78;5057880;28;20221;-70
2023/12/11 02:51:28;;;;;;;3.08;2.88;;;;;;;4.79;68.83;94894.31;5058689;28;20536;-70
2023/12/11 02:53:55;;;;;;;3.25;3.05;;;;;;;4.81;68.48;94899.44;5058662;28;20201;-70
2023/12/11 02:56:25;;;;;;;3.25;3.05;;;;;;;4.80;68.79;94895.91;5057491;28;20205;-70
2023/12/11 02:58:52;;;;;;;3.00;2.90;;;;;;;4.80;68.77;94901.38;5058633;28;20523;-70
2023/12/11 03:01:20;;;;;;;3.13;2.92;;;;;;;4.82;68.70;94901.03;5057922;28;20186;-70
2023/12/11 03:03:47;;;;;;;3.00;2.80;;;;;;;4.82;68.92;94898.31;5057625;28;20255;-70
2023/12/11 03:06:17;;;;;;;2.60;2.50;;;;;;;4.81;68.81;94892.03;5058088;28;20544;-70
2023/12/11 03:08:44;;;;;;;3.05;2.85;;;;;;;4.81;68.95;94896.69;5058215;28;20202;-70
2023/12/11 03:11:14;;;;;;;2.58;2.47;;;;;;;4.81;68.59;94896.69;5058150;28;20255;-70
2023/12/11 03:13:41;;;;;;;2.90;2.70;;;;;;;4.80;68.59;94890.44;5057159;28;20208;-70
2023/12/11 03:16:13;;;;;;;3.00;2.80;;;;;;;4.79;68.61;94877.91;5056771;28;20287;-70
2023/12/11 03:18:42;;;;;;;2.90;2.70;;;;;;;4.80;68.71;94871.31;5057798;28;20524;-70
2023/12/11 03:21:09;;;;;;;3.03;2.83;;;;;;;4.77;68.62;94873.88;5058396;28;20189;-70
2023/12/11 03:23:36;;;;;;;2.88;2.70;;;;;;;4.74;68.65;94878.03;5057384;28;20577;-70
2023/12/11 03:26:03;;;;;;;3.15;2.95;;;;;;;4.71;68.72;94878.69;5057948;28;20194;-69
2023/12/11 03:28:30;;;;;;;3.20;3.00;;;;;;;4.71;68.98;94877.88;5057746;28;20193;-69
2023/12/11 03:30:57;;;;;;;4.03;3.72;;;;;;;4.67;69.24;94877.72;5056586;28;20692;-69
2023/12/11 03:33:24;;;;;;;3.75;3.53;;;;;;;4.65;69.11;94871.78;5057494;28;20576;-69
2023/12/11 03:35:52;;;;;;;3.40;3.20;;;;;;;4.65;68.87;94877.25;5057105;28;20186;-70
2023/12/11 03:38:19;;;;;;;3.03;2.83;;;;;;;4.66;69.29;94872.59;5056614;28;20210;-70
2023/12/11 03:40:46;;;;;;;4.50;4.20;;;;;;;4.67;68.77;94871.44;5056588;28;20202;-70
2023/12/11 03:43:13;;;;;;;5.60;5.10;;;;;;;4.68;69.01;94875.78;5057403;28;20576;-70
2023/12/11 03:45:43;;;;;;;3.70;3.40;;;;;;;4.69;68.60;94869.22;5056764;28;20197;-70
2023/12/11 03:48:10;;;;;;;4.43;4.13;;;;;;;4.73;68.61;94872.91;5056615;28;20304;-70
2023/12/11 03:50:37;;;;;;;3.90;3.60;;;;;;;4.75;68.72;94878.84;5056944;28;20279;-70
2023/12/11 03:53:05;;;;;;;3.72;3.42;;;;;;;4.76;68.55;94870.34;5056654;28;20201;-70
2023/12/11 03:55:32;;;;;;;3.25;3.05;;;;;;;4.77;68.71;94877.41;5056456;28;20288;-70
2023/12/11 03:57:59;;;;;;;3.17;2.97;;;;;;;4.78;68.46;94867.28;5056418;28;20202;-70
2023/12/11 04:00:26;;;;;;;2.97;2.78;;;;;;;4.78;68.56;94875.47;5056501;28;20283;-70
2023/12/11 04:02:53;;;;;;;2.90;2.70;;;;;;;4.78;68.24;94873.53;5056807;28;20263;-70
2023/12/11 04:05:20;;;;;;;3.28;3.00;;;;;;;4.79;68.37;94877.91;5056451;28;20202;-70
2023/12/11 04:07:47;;;;;;;2.85;2.65;;;;;;;4.79;68.68;94882.53;5056554;28;20214;-70
2023/12/11 04:10:15;;;;;;;3.47;3.28;;;;;;;4.79;68.92;94880.63;5056420;28;20291;-70
2023/12/11 04:12:43;;;;;;;2.97;2.78;;;;;;;4.74;69.20;94875.31;5057624;28;20206;-70
2023/12/11 04:15:11;;;;;;;3.10;2.90;;;;;;;4.74;69.36;94878.03;5057549;28;20320;-70
2023/12/11 04:17:38;;;;;;;3.13;2.92;;;;;;;4.76;69.21;94875.81;5060081;28;20292;-70
2023/12/11 04:20:05;;;;;;;3.63;3.33;;;;;;;4.76;69.32;94877.75;5075857;28;20192;-70
2023/12/11 04:22:32;;;;;;;4.55;4.05;;;;;;;4.71;69.58;94884.16;5059099;28;20258;-70
2023/12/11 04:24:59;;;;;;;5.53;4.60;;;;;;;4.69;69.58;94874.69;5075635;28;20208;-70
2023/12/11 04:27:28;;;;;;;5.28;4.78;;;;;;;4.71;69.61;94883.34;5076234;28;20185;-70
2023/12/11 04:29:55;;;;;;;5.05;4.55;;;;;;;4.71;69.71;94873.22;5059454;28;20212;-70
2023/12/11 04:32:22;;;;;;;5.72;5.13;;;;;;;4.76;69.48;94880.47;5076181;28;20200;-70
2023/12/11 04:34:49;;;;;;;5.05;4.63;;;;;;;4.75;69.13;94876.91;5075500;28;20250;-69
2023/12/11 04:37:16;;;;;;;5.63;5.13;;;;;;;4.77;69.47;94877.41;5058873;28;20209;-69
2023/12/11 04:39:43;;;;;;;5.28;4.78;;;;;;;4.78;69.54;94878.22;5058796;28;20250;-69
2023/12/11 04:42:11;;;;;;;4.47;4.10;;;;;;;4.74;69.78;94883.50;5057601;28;20201;-70
2023/12/11 04:44:40;;;;;;;4.25;3.95;;;;;;;4.73;69.61;94886.56;5075261;28;20201;-69
2023/12/11 04:47:07;;;;;;;5.00;4.60;;;;;;;4.72;69.37;94879.47;5058525;28;20301;-69
2023/12/11 04:49:35;;;;;;;4.95;4.55;;;;;;;4.73;69.94;94878.38;5058541;28;20221;-70
2023/12/11 04:52:02;;;;;;;5.05;4.65;;;;;;;4.72;70.04;94883.03;5059340;28;20217;-70
2023/12/11 04:54:29;;;;;;;4.97;4.57;;;;;;;4.75;69.93;94889.78;5059617;28;20205;-70
2023/12/11 04:56:56;;;;;;;5.00;4.60;;;;;;;4.74;70.02;94877.25;5075344;28;20201;-69
2023/12/11 04:59:24;;;;;;;4.72;4.38;;;;;;;4.72;70.42;94888.50;5075599;28;20231;-71
2023/12/11 05:01:52;;;;;;;4.68;4.28;;;;;;;4.69;70.40;94888.34;5059495;28;20215;-71
2023/12/11 05:04:19;;;;;;;4.53;4.13;;;;;;;4.67;70.17;94882.38;5058371;28;20201;-71
2023/12/11 05:06:46;;;;;;;4.75;4.45;;;;;;;4.68;70.20;94886.72;5058323;28;20205;-69
2023/12/11 05:09:13;;;;;;;5.00;4.50;;;;;;;4.66;70.57;94887.03;5058603;28;20579;-70
2023/12/11 05:11:40;;;;;;;4.93;4.53;;;;;;;4.63;70.95;94879.47;5059283;28;20209;-75
2023/12/11 05:14:07;;;;;;;4.88;4.47;;;;;;;4.65;70.96;94877.25;5078072;28;20201;-72
2023/12/11 05:16:34;;;;;;;4.35;4.05;;;;;;;4.64;71.31;94883.81;5078574;28;20204;-72
2023/12/11 05:19:03;;;;;;;4.40;4.10;;;;;;;4.61;70.96;94886.38;5095722;28;20200;-72
2023/12/11 05:21:30;;;;;;;4.55;4.25;;;;;;;4.59;71.16;94890.25;5095515;28;20195;-73
2023/12/11 05:23:57;;;;;;;4.93;4.57;;;;;;;4.62;70.89;94897.00;5078520;28;20203;-72
2023/12/11 05:26:24;;;;;;;5.53;5.13;;;;;;;4.65;71.07;94890.06;5078789;28;20200;-72
2023/12/11 05:28:50;;;;;;;5.65;5.18;;;;;;;4.67;70.92;94894.09;5078371;28;20555;-73
2023/12/11 05:31:18;;;;;;;5.10;4.70;;;;;;;4.70;71.12;94889.94;5078911;28;20208;-73
2023/12/11 05:33:45;;;;;;;5.07;4.68;;;;;;;4.81;71.13;94893.97;5077857;28;20196;-74
2023/12/11 05:36:13;;;;;;;4.25;3.95;;;;;;;4.99;70.41;94906.50;5078455;28;20210;-75
2023/12/11 05:38:40;;;;;;;4.53;4.13;;;;;;;5.13;69.70;94906.34;5077676;28;20196;-75
2023/12/11 05:41:07;;;;;;;4.78;4.38;;;;;;;5.26;69.23;94912.78;5096024;28;20185;-73
2023/12/11 05:43:37;;;;;;;5.65;5.05;;;;;;;5.30;68.45;94909.09;5077765;28;20204;-72
2023/12/11 05:46:04;;;;;;;6.15;4.82;;;;;;;5.38;68.15;94910.22;5078213;28;20184;-71
2023/12/11 05:48:31;;;;;;;4.68;4.22;;;;;;;5.45;68.02;94907.78;5094557;28;20639;-71
2023/12/11 05:51:01;;;;;;;4.20;3.25;;;;;;;5.51;67.65;94908.41;5094630;28;20266;-72
2023/12/11 05:53:29;;;;;;;3.90;3.50;;;;;;;5.57;67.10;94912.59;5077511;28;20209;-71
2023/12/11 05:55:56;;;;;;;4.03;3.72;;;;;;;5.60;66.56;94919.34;5095055;28;20203;-72
2023/12/11 05:58:24;;;;;;;4.32;3.92;;;;;;;5.61;66.45;94920.94;5095141;28;20225;-71
2023/12/11 06:00:51;;;;;;;4.45;4.05;;;;;;;5.60;66.71;94925.63;5077664;28;20208;-72
2023/12/11 06:03:18;;;;;;;4.47;4.07;;;;;;;5.57;66.42;94925.47;5078078;28;20249;-72
2023/12/11 06:05:48;;;;;;;4.75;4.35;;;;;;;5.51;67.18;94928.34;5078040;28;20230;-72
2023/12/11 06:08:15;;;;;;;5.18;4.78;;;;;;;5.44;67.51;94925.31;5094983;28;20196;-73
2023/12/11 06:10:43;;;;;;;4.75;4.35;;;;;;;5.41;67.48;94914.19;5077881;28;20295;-72
2023/12/11 06:13:10;;;;;;;5.60;5.10;;;;;;;5.35;67.83;94919.06;5077899;28;20208;-72
2023/12/11 06:15:37;;;;;;;5.50;5.00;;;;;;;5.35;68.08;94919.06;5089112;28;20240;-72
2023/12/11 06:18:05;;;;;;;5.25;4.75;;;;;;;5.32;68.11;94931.44;5058029;28;20516;-72
2023/12/11 06:20:32;;;;;;;6.00;5.40;;;;;;;5.31;68.11;94929.84;5058128;28;20189;-72
2023/12/11 06:22:59;;;;;;;6.53;5.88;;;;;;;5.34;68.16;94933.03;5057794;28;20254;-72
2023/12/11 06:25:26;;;;;;;5.85;5.35;;;;;;;5.38;68.14;94936.75;5058004;28;20205;-72
2023/12/11 06:27:54;;;;;;;5.30;4.90;;;;;;;5.40;68.35;94927.06;5057283;28;20204;-72
2023/12/11 06:30:21;;;;;;;6.15;5.57;;;;;;;5.44;67.98;94930.78;5057617;28;20209;-72
2023/12/11 06:32:48;;;;;;;6.90;6.10;;;;;;;5.47;67.63;94929.31;5057164;28;20219;-72
2023/12/11 06:35:16;;;;;;;7.32;6.57;;;;;;;5.50;67.67;94929.47;5057101;28;20201;-72
2023/12/11 06:37:43;;;;;;;6.55;5.95;;;;;;;5.50;67.94;94924.00;5057861;28;20192;-72
2023/12/11 06:40:10;;;;;;;6.30;5.70;;;;;;;5.53;67.58;94925.31;5090904;28;20247;-72
2023/12/11 06:42:38;;;;;;;5.72;5.22;;;;;;;5.56;67.52;94930.13;5057275;28;20197;-72
2023/12/11 06:45:08;;;;;;;6.32;5.72;;;;;;;5.58;67.52;94933.34;5057516;28;20186;-72
2023/12/11 06:47:35;;;;;;;6.25;5.72;;;;;;;5.62;67.48;94938.97;5057348;28;20208;-72
2023/12/11 06:50:03;;;;;;;6.38;5.78;;;;;;;5.66;67.35;94928.97;5057192;28;20201;-72
2023/12/11 06:52:30;;;;;;;5.40;4.90;;;;;;;5.67;67.03;94923.19;5090948;28;20262;-72
2023/12/11 06:54:58;;;;;;;6.53;5.78;;;;;;;5.71;67.43;94918.66;5090936;28;20212;-72
2023/12/11 06:57:25;;;;;;;5.97;5.47;;;;;;;5.75;67.04;94935.25;5056909;28;20212;-72
2023/12/11 06:59:51;;;;;;;6.20;5.60;;;;;;;5.80;67.08;94937.78;5090875;28;20251;-72
2023/12/11 07:02:21;;;;;;;6.43;5.82;;;;;;;5.85;66.84;94942.31;5057345;28;20247;-72
2023/12/11 07:04:48;;;;;;;8.57;7.72;;;;;;;5.91;66.88;94947.25;5092077;28;20200;-72
2023/12/11 07:07:15;;;;;;;8.13;7.32;;;;;;;5.98;66.22;94952.28;5094413;28;20197;-73
2023/12/11 07:09:46;;;;;;;7.40;6.70;;;;;;;6.00;66.18;94959.03;5061386;28;20213;-73
2023/12/11 07:12:13;;;;;;;6.85;6.25;;;;;;;6.07;65.87;94960.47;5061473;28;20217;-73
2023/12/11 07:14:40;;;;;;;5.10;4.70;;;;;;;6.11;65.09;94964.16;5057711;28;20237;-73
2023/12/11 07:17:07;;;;;;;5.30;4.90;;;;;;;6.13;64.20;94968.16;5073983;28;20194;-72
2023/12/11 07:19:38;;;;;;;6.00;5.47;;;;;;;6.12;64.10;94974.78;5058131;28;20197;-72
2023/12/11 07:22:05;;;;;;;8.30;5.72;;;;;;;6.13;64.28;94970.09;5073851;28;20220;-72
2023/12/11 07:24:32;;;;;;;7.25;6.35;;;;;;;6.14;64.23;94971.75;5057495;28;20194;-72
2023/12/11 07:26:59;;;;;;;7.07;6.38;;;;;;;6.15;64.45;94973.34;5073512;28;20263;-73
2023/12/11 07:29:26;;;;;;;6.15;5.57;;;;;;;6.10;64.52;94985.28;5057810;28;20202;-73
2023/12/11 07:31:53;;;;;;;6.20;5.60;;;;;;;6.09;64.80;94983.66;5057236;28;20214;-72
2023/12/11 07:34:21;;;;;;;6.97;5.28;;;;;;;6.13;65.14;94981.88;5057203;28;20202;-72
2023/12/11 07:36:52;;;;;;;5.10;4.70;;;;;;;6.11;64.86;94992.34;5073475;28;20221;-73
2023/12/11 07:39:19;;;;;;;4.88;4.45;;;;;;;6.14;64.71;94988.16;5057418;28;20230;-73
2023/12/11 07:41:46;;;;;;;5.22;3.80;;;;;;;6.25;65.23;94984.75;5073166;28;20197;-72
2023/12/11 07:44:13;;;;;;;6.35;4.68;;;;;;;6.38;65.24;94995.81;5056549;28;20186;-72
2023/12/11 07:46:40;;;;;;;5.78;4.63;;;;;;;6.36;64.81;94987.94;5056745;28;20206;-72
2023/12/11 07:49:07;;;;;;;4.85;4.07;;;;;;;6.32;64.92;94989.72;5073512;28;20209;-72
2023/12/11 07:51:34;;;;;;;4.70;4.30;;;;;;;6.26;64.62;94991.81;5057820;28;20202;-72
2023/12/11 07:54:02;;;;;;;5.15;4.43;;;;;;;6.24;65.09;94996.81;5057350;28;20213;-72
2023/12/11 07:56:30;;;;;;;4.55;4.15;;;;;;;6.24;64.89;94990.53;5057258;28;20194;-72
2023/12/11 07:58:57;;;;;;;4.43;4.05;;;;;;;6.26;64.86;94993.75;5056779;28;20308;-72
2023/12/11 08:01:26;;;;;;;3.30;3.10;;;;;;;6.25;64.56;94998.44;5074009;28;20202;-72
2023/12/11 08:03:54;;;;;;;2.97;2.78;;;;;;;6.24;63.16;94999.53;5073669;28;20192;-72
2023/12/11 08:06:21;;;;;;;3.70;3.40;;;;;;;6.25;63.00;94992.16;5056989;28;20244;-72
2023/12/11 08:08:48;;;;;;;2.97;2.78;;;;;;;6.27;63.00;94984.41;5056082;28;20202;-72
2023/12/11 08:11:20;;;;;;;3.40;3.10;;;;;;;6.30;62.39;94988.44;5056721;28;20264;-72
2023/12/11 08:16:15;;;;;;;3.20;2.90;;;;;;;6.28;62.40;95002.44;5075126;28;20688;-72
2023/12/11 08:18:43;;;;;;;3.47;3.28;;;;;;;6.23;62.57;94986.19;5076992;28;20201;-72
2023/12/11 08:21:10;;;;;;;3.92;3.63;;;;;;;6.24;62.53;94996.00;5076101;28;20201;-72
2023/12/11 08:23:39;;;;;;;3.55;3.35;;;;;;;6.26;62.39;94989.09;5093229;28;20182;-72
2023/12/11 08:26:06;;;;;;;3.30;3.00;;;;;;;6.33;63.09;95001.47;5093714;28;20189;-72
2023/12/11 08:28:35;;;;;;;3.25;2.95;;;;;;;6.39;62.78;94992.75;5076051;28;20243;-72
2023/12/11 08:31:03;;;;;;;3.70;3.33;;;;;;;6.44;62.19;94984.34;5093222;28;20213;-72
2023/12/11 08:33:30;;;;;;;3.70;3.40;;;;;;;6.46;61.78;94986.75;5093041;28;20197;-72
2023/12/11 08:35:58;;;;;;;3.42;3.13;;;;;;;6.49;61.87;94991.56;5076357;28;20193;-72
2023/12/11 08:38:25;;;;;;;3.75;3.45;;;;;;;6.46;61.42;94987.56;5076332;28;20225;-72
2023/12/11 08:40:52;;;;;;;3.55;3.25;;;;;;;6.48;61.51;94981.75;5076945;28;20185;-72
2023/12/11 08:43:19;;;;;;;3.97;3.67;;;;;;;6.51;61.79;94984.63;5092542;28;20201;-68
2023/12/11 08:45:48;;;;;;;3.38;3.00;;;;;;;6.51;61.10;94986.56;5075331;28;20201;-72
2023/12/11 08:48:15;;;;;;;3.10;2.80;;;;;;;6.53;60.32;94986.25;5076494;28;20291;-73
2023/12/11 08:50:42;;;;;;;2.92;2.65;;;;;;;6.57;60.52;94981.69;5075190;28;20185;-71
2023/12/11 08:53:09;;;;;;;2.70;2.50;;;;;;;6.61;60.21;94972.50;5075246;28;20197;-69
2023/12/11 08:55:36;;;;;;;2.83;2.63;;;;;;;6.68;59.61;94971.97;5076333;28;20197;-71
2023/12/11 08:58:03;;;;;;;3.10;2.90;;;;;;;6.74;59.97;94965.19;5092241;28;20629;-74
2023/12/11 09:00:31;;;;;;;3.70;3.40;;;;;;;6.81;60.13;94961.91;5091893;28;20631;-72
2023/12/11 09:02:59;;;;;;;3.63;3.10;;;;;;;6.87;59.91;94952.38;5075082;28;20251;-72
2023/12/11 09:05:26;;;;;;;3.30;2.88;;;;;;;7.07;60.63;94959.81;5092774;28;20201;-72
2023/12/11 09:07:55;;;;;;;5.18;4.68;;;;;;;7.41;59.26;94953.28;5091755;28;20628;-72
2023/12/11 09:10:23;;;;;;;4.95;4.55;;;;;;;7.76;58.91;94949.41;5076143;28;20174;-72
2023/12/11 09:12:51;;;;;;;3.70;3.40;;;;;;;8.04;58.01;94933.94;5092429;28;20221;-72
2023/12/11 09:15:18;;;;;;;3.83;3.53;;;;;;;8.29;56.68;94925.75;5075651;28;20233;-72
2023/12/11 09:17:45;;;;;;;3.45;2.90;;;;;;;8.53;56.20;94906.53;5075549;28;20204;-72
2023/12/11 09:20:14;;;;;;;4.20;3.20;;;;;;;8.74;55.28;94906.41;5074732;28;20602;-72
2023/12/11 09:22:41;;;;;;;4.10;3.13;;;;;;;9.00;55.51;94895.03;5076178;28;20231;-73
2023/12/11 09:25:09;;;;;;;3.17;2.97;;;;;;;9.26;54.19;94902.91;5075483;28;20324;-73
2023/12/11 09:27:37;;;;;;;4.43;3.00;;;;;;;9.42;54.32;94904.91;5091190;28;20200;-73
2023/12/11 09:30:05;;;;;;;3.55;3.00;;;;;;;9.54;53.65;94899.34;5075061;28;20197;-73
2023/12/11 09:32:32;;;;;;;3.25;3.05;;;;;;;9.82;52.52;94902.91;5074408;28;20217;-73
2023/12/11 09:34:59;;;;;;;3.70;3.20;;;;;;;10.07;52.31;94897.25;5074205;28;20236;-73
2023/12/11 09:37:27;;;;;;;3.72;3.25;;;;;;;10.24;51.95;94896.09;5074915;28;20212;-73
2023/12/11 09:39:54;;;;;;;4.15;3.75;;;;;;;10.31;50.83;94883.34;5074900;28;20587;-73
2023/12/11 09:42:21;;;;;;;3.85;3.30;;;;;;;10.48;50.52;94887.69;5091176;28;20209;-73
2023/12/11 09:44:49;;;;;;;4.00;3.25;;;;;;;10.64;50.47;94886.88;5091482;28;20250;-73
2023/12/11 09:47:21;;;;;;;3.13;2.85;;;;;;;10.69;49.11;94886.63;5091111;28;20609;-72
2023/12/11 09:49:48;;;;;;;3.42;2.92;;;;;;;10.79;49.08;94883.31;5074286;28;20694;-72
2023/12/11 09:52:17;;;;;;;2.72;2.53;;;;;;;10.81;49.04;94875.47;5074508;28;20221;-72
2023/12/11 09:54:48;;;;;;;4.10;3.15;;;;;;;10.82;48.44;94868.78;5075175;28;20209;-72
2023/12/11 09:57:19;;;;;;;3.15;2.85;;;;;;;10.69;48.90;94859.03;5091091;28;20262;-72
2023/12/11 09:59:48;;;;;;;4.47;2.70;;;;;;;10.87;48.78;94867.72;5058211;28;20668;-72
2023/12/11 10:02:16;;;;;;;3.20;2.78;;;;;;;10.99;48.57;94857.34;5057393;28;20208;-72
2023/12/11 10:05:01;;;;;;;3.78;2.97;;;;;;;11.08;48.02;94854.41;5057310;28;20205;-72
2023/12/11 10:07:28;;;;;;;2.95;2.50;;;;;;;10.99;47.87;94846.31;5075523;28;20205;-72
2023/12/11 10:09:56;;;;;;;3.92;2.97;;;;;;;10.83;48.08;94846.38;5091257;28;20201;-72
2023/12/11 10:12:23;;;;;;;3.00;2.80;;;;;;;10.73;48.07;94855.19;5091140;28;20220;-72
2023/12/11 10:15:01;;;;;;;3.17;2.65;;;;;;;10.55;49.36;94860.28;5088893;28;20228;-72
2023/12/11 10:17:29;;;;;;;3.55;3.22;;;;;;;10.32;49.30;94851.06;5057926;28;20200;-72
2023/12/11 10:19:58;;;;;;;3.30;3.00;;;;;;;10.08;49.48;94850.03;5057129;28;20201;-72
2023/12/11 10:22:30;;;;;;;5.53;3.33;;;;;;;9.86;50.65;94851.44;5058295;28;20201;-72
2023/12/11 10:25:00;;;;;;;3.65;3.35;;;;;;;9.74;50.46;94845.22;5057503;28;20201;-72
2023/12/11 10:27:27;;;;;;;3.47;3.17;;;;;;;9.57;50.67;94841.63;5090908;28;20223;-72
2023/12/11 10:30:11;;;;;;;4.28;3.30;;;;;;;9.42;51.59;94833.34;5091241;28;20208;-72
2023/12/11 10:32:38;;;;;;;4.47;3.70;;;;;;;9.39;51.90;94832.09;5056894;28;20252;-72
2023/12/11 10:35:06;;;;;;;3.63;3.30;;;;;;;9.35;51.78;94833.94;5057911;28;20193;-72
2023/12/11 10:37:35;;;;;;;5.28;3.72;;;;;;;9.30;53.02;94836.94;5057569;28;20204;-72
2023/12/11 10:40:03;;;;;;;3.70;3.40;;;;;;;9.23;52.34;94832.03;5059317;28;20213;-72
2023/12/11 10:42:31;;;;;;;3.35;3.05;;;;;;;9.13;52.49;94832.53;5061929;28;20611;-72
2023/12/11 10:44:59;;;;;;;3.55;3.25;;;;;;;9.13;52.93;94840.78;5078866;28;20187;-72
2023/12/11 10:47:26;;;;;;;4.65;3.63;;;;;;;9.08;53.95;94830.84;5094481;28;20189;-72
2023/12/11 10:49:53;;;;;;;4.40;3.47;;;;;;;9.08;54.31;94825.34;5094928;28;20185;-72
2023/12/11 10:52:20;;;;;;;4.68;3.90;;;;;;;8.94;55.77;94827.66;5061394;28;20217;-72
2023/12/11 10:54:47;;;;;;;3.60;2.97;;;;;;;8.82;54.80;94820.25;5061637;28;20207;-72
2023/12/11 10:57:17;;;;;;;3.65;3.25;;;;;;;8.79;55.40;94826.44;5095575;28;20193;-73
2023/12/11 10:59:45;;;;;;;4.57;3.85;;;;;;;8.72;56.00;94828.19;5062010;28;20200;-72
2023/12/11 11:02:14;;;;;;;5.28;4.03;;;;;;;8.81;56.02;94818.63;5096316;28;20204;-72
2023/12/11 11:04:43;;;;;;;4.53;4.13;;;;;;;8.98;56.34;94812.06;5062305;28;20201;-72
2023/12/11 11:07:16;;;;;;;4.05;3.50;;;;;;;9.19;55.93;94798.13;5079863;28;20266;-72
2023/12/11 11:09:50;;;;;;;4.30;3.88;;;;;;;9.43;55.04;94791.69;5061834;28;20201;-73
2023/12/11 11:12:27;;;;;;;4.28;3.53;;;;;;;9.89;54.70;94792.91;5061350;28;20224;-72
2023/12/11 11:14:54;;;;;;;4.30;3.53;;;;;;;10.34;52.46;94783.38;5057892;28;20641;-71
2023/12/11 11:17:21;;;;;;;4.63;3.58;;;;;;;10.74;51.46;94784.25;5058621;28;20602;-72
2023/12/11 11:20:12;;;;;;;4.53;3.80;;;;;;;11.18;50.99;94786.75;5075049;28;20209;-72
2023/12/11 11:22:40;;;;;;;4.85;4.15;;;;;;;11.64;50.10;94779.38;5058408;28;20198;-72
2023/12/11 11:25:31;;;;;;;4.72;4.20;;;;;;;12.68;47.61;94776.38;5058243;28;20251;-72
2023/12/11 11:28:00;;;;;;;4.45;4.05;;;;;;;13.83;44.92;94770.25;5069439;28;20209;-72
2023/12/11 11:30:52;;;;;;;4.32;3.92;;;;;;;15.46;41.03;94766.22;5074762;28;20213;-71
2023/12/11 11:33:23;;;;;;;4.60;3.90;;;;;;;17.51;37.75;94756.69;5074895;28;20238;-72
2023/12/11 11:36:20;;;;;;;4.78;4.00;;;;;;;19.69;33.34;94750.06;5058451;28;20198;-72
2023/12/11 11:39:00;;;;;;;4.25;3.85;;;;;;;20.71;30.66;94739.00;5057941;28;20202;-73
2023/12/11 11:41:28;;;;;;;4.60;4.07;;;;;;;20.77;30.98;94740.88;5058308;28;20276;-72
2023/12/11 11:43:57;;;;;;;5.15;4.50;;;;;;;21.81;29.63;94741.69;5075157;28;20208;-72
2023/12/11 11:46:26;;;;;;;4.30;3.90;;;;;;;22.44;27.97;94746.31;5074865;28;20197;-72
2023/12/11 11:48:53;;;;;;;5.25;4.00;;;;;;;22.38;27.79;94736.84;5057989;28;20206;-72